ROMY(METAR)
08/23 20:00
METAR ROMY 231100Z 09014KT 9999 SCT016 SCT/// 29/26 Q1007 RMK 3CU016
A2974=
戻る
トップページへ戻る
IMOC Co,.Ltd.